sensor_id;sensor_type;location;lat;lon;timestamp;P1;durP1;ratioP1;P2;durP2;ratioP2
54935;SDS011;40838;50.676;7.838;2022-12-18T00:00:03;15.57;;;5.90;;
54935;SDS011;40838;50.676;7.838;2022-12-18T00:02:39;13.90;;;5.82;;
54935;SDS011;40838;50.676;7.838;2022-12-18T00:05:08;15.15;;;6.68;;
54935;SDS011;40838;50.676;7.838;2022-12-18T00:07:35;13.57;;;6.35;;
54935;SDS011;40838;50.676;7.838;2022-12-18T00:10:02;15.20;;;6.85;;
54935;SDS011;40838;50.676;7.838;2022-12-18T00:12:30;21.55;;;8.50;;
54935;SDS011;40838;50.676;7.838;2022-12-18T00:14:57;14.85;;;7.22;;
54935;SDS011;40838;50.676;7.838;2022-12-18T00:17:24;16.75;;;7.22;;
54935;SDS011;40838;50.676;7.838;2022-12-18T00:19:53;19.30;;;7.47;;
54935;SDS011;40838;50.676;7.838;2022-12-18T00:22:21;17.15;;;6.63;;
54935;SDS011;40838;50.676;7.838;2022-12-18T00:24:48;15.38;;;6.38;;
54935;SDS011;40838;50.676;7.838;2022-12-18T00:27:15;16.00;;;6.32;;
54935;SDS011;40838;50.676;7.838;2022-12-18T00:29:42;18.48;;;8.07;;
54935;SDS011;40838;50.676;7.838;2022-12-18T00:32:09;20.08;;;9.50;;
54935;SDS011;40838;50.676;7.838;2022-12-18T00:34:36;19.63;;;7.90;;
54935;SDS011;40838;50.676;7.838;2022-12-18T00:37:03;17.17;;;7.18;;
54935;SDS011;40838;50.676;7.838;2022-12-18T00:39:31;17.95;;;7.00;;
54935;SDS011;40838;50.676;7.838;2022-12-18T00:42:00;15.70;;;7.10;;
54935;SDS011;40838;50.676;7.838;2022-12-18T00:44:44;15.32;;;7.50;;
54935;SDS011;40838;50.676;7.838;2022-12-18T00:47:13;18.42;;;6.53;;
54935;SDS011;40838;50.676;7.838;2022-12-18T00:49:40;18.23;;;6.20;;
54935;SDS011;40838;50.676;7.838;2022-12-18T00:52:07;14.30;;;7.32;;
54935;SDS011;40838;50.676;7.838;2022-12-18T00:54:35;17.25;;;7.30;;
54935;SDS011;40838;50.676;7.838;2022-12-18T00:57:02;15.07;;;7.07;;
54935;SDS011;40838;50.676;7.838;2022-12-18T00:59:29;17.02;;;7.57;;
54935;SDS011;40838;50.676;7.838;2022-12-18T01:01:56;17.83;;;8.10;;
54935;SDS011;40838;50.676;7.838;2022-12-18T01:04:23;25.88;;;9.63;;
54935;SDS011;40838;50.676;7.838;2022-12-18T01:06:50;19.70;;;9.15;;
54935;SDS011;40838;50.676;7.838;2022-12-18T01:09:17;23.02;;;9.00;;
54935;SDS011;40838;50.676;7.838;2022-12-18T01:11:45;17.27;;;8.05;;
54935;SDS011;40838;50.676;7.838;2022-12-18T01:14:12;19.48;;;8.30;;
54935;SDS011;40838;50.676;7.838;2022-12-18T01:16:39;18.02;;;7.68;;
54935;SDS011;40838;50.676;7.838;2022-12-18T01:19:06;18.13;;;8.10;;
54935;SDS011;40838;50.676;7.838;2022-12-18T01:21:33;20.90;;;8.07;;
54935;SDS011;40838;50.676;7.838;2022-12-18T01:24:03;13.82;;;6.82;;
54935;SDS011;40838;50.676;7.838;2022-12-18T01:26:34;15.82;;;6.97;;
54935;SDS011;40838;50.676;7.838;2022-12-18T01:29:02;15.20;;;7.30;;
54935;SDS011;40838;50.676;7.838;2022-12-18T01:31:30;19.42;;;8.52;;
54935;SDS011;40838;50.676;7.838;2022-12-18T01:34:01;17.38;;;7.80;;
54935;SDS011;40838;50.676;7.838;2022-12-18T01:36:30;15.82;;;7.85;;
54935;SDS011;40838;50.676;7.838;2022-12-18T01:38:59;16.90;;;7.53;;
54935;SDS011;40838;50.676;7.838;2022-12-18T01:41:27;16.75;;;8.52;;
54935;SDS011;40838;50.676;7.838;2022-12-18T01:47:25;21.23;;;10.05;;
54935;SDS011;40838;50.676;7.838;2022-12-18T01:49:55;21.33;;;10.05;;
54935;SDS011;40838;50.676;7.838;2022-12-18T01:52:25;18.25;;;8.82;;
54935;SDS011;40838;50.676;7.838;2022-12-18T01:54:54;19.38;;;9.20;;
54935;SDS011;40838;50.676;7.838;2022-12-18T01:57:25;19.70;;;8.40;;
54935;SDS011;40838;50.676;7.838;2022-12-18T01:59:52;22.88;;;8.95;;
54935;SDS011;40838;50.676;7.838;2022-12-18T02:02:24;21.63;;;8.65;;
54935;SDS011;40838;50.676;7.838;2022-12-18T02:04:54;23.42;;;9.40;;
54935;SDS011;40838;50.676;7.838;2022-12-18T02:07:24;18.65;;;8.30;;
54935;SDS011;40838;50.676;7.838;2022-12-18T02:10:00;21.73;;;8.13;;
54935;SDS011;40838;50.676;7.838;2022-12-18T02:12:35;23.63;;;9.57;;
54935;SDS011;40838;50.676;7.838;2022-12-18T02:15:12;22.67;;;8.20;;
54935;SDS011;40838;50.676;7.838;2022-12-18T02:17:47;24.33;;;9.63;;
54935;SDS011;40838;50.676;7.838;2022-12-18T02:20:20;22.02;;;9.13;;
54935;SDS011;40838;50.676;7.838;2022-12-18T02:22:55;21.73;;;9.25;;
54935;SDS011;40838;50.676;7.838;2022-12-18T02:25:40;17.38;;;8.65;;
54935;SDS011;40838;50.676;7.838;2022-12-18T02:28:23;18.42;;;8.75;;
54935;SDS011;40838;50.676;7.838;2022-12-18T02:30:59;15.38;;;6.95;;
54935;SDS011;40838;50.676;7.838;2022-12-18T02:33:31;16.52;;;7.13;;
54935;SDS011;40838;50.676;7.838;2022-12-18T02:36:02;15.25;;;7.15;;
54935;SDS011;40838;50.676;7.838;2022-12-18T02:38:32;18.23;;;7.57;;
54935;SDS011;40838;50.676;7.838;2022-12-18T02:41:07;18.33;;;8.23;;
54935;SDS011;40838;50.676;7.838;2022-12-18T02:43:36;16.38;;;7.00;;
54935;SDS011;40838;50.676;7.838;2022-12-18T02:49:02;14.38;;;6.63;;
54935;SDS011;40838;50.676;7.838;2022-12-18T02:51:39;19.33;;;8.38;;
54935;SDS011;40838;50.676;7.838;2022-12-18T02:54:18;23.48;;;9.45;;
54935;SDS011;40838;50.676;7.838;2022-12-18T02:56:54;19.63;;;8.27;;
54935;SDS011;40838;50.676;7.838;2022-12-18T02:59:30;20.90;;;8.70;;
54935;SDS011;40838;50.676;7.838;2022-12-18T03:02:06;15.60;;;7.45;;
54935;SDS011;40838;50.676;7.838;2022-12-18T03:04:47;21.65;;;8.93;;
54935;SDS011;40838;50.676;7.838;2022-12-18T03:07:18;19.00;;;8.68;;
54935;SDS011;40838;50.676;7.838;2022-12-18T03:09:52;20.13;;;7.85;;
54935;SDS011;40838;50.676;7.838;2022-12-18T03:12:21;18.90;;;8.35;;
54935;SDS011;40838;50.676;7.838;2022-12-18T03:14:58;19.77;;;8.98;;
54935;SDS011;40838;50.676;7.838;2022-12-18T03:17:30;22.63;;;8.43;;
54935;SDS011;40838;50.676;7.838;2022-12-18T03:20:03;20.67;;;9.18;;
54935;SDS011;40838;50.676;7.838;2022-12-18T03:22:34;21.13;;;8.82;;
54935;SDS011;40838;50.676;7.838;2022-12-18T03:25:06;26.70;;;9.15;;
54935;SDS011;40838;50.676;7.838;2022-12-18T03:27:38;19.27;;;9.10;;
54935;SDS011;40838;50.676;7.838;2022-12-18T03:30:12;24.35;;;10.13;;
54935;SDS011;40838;50.676;7.838;2022-12-18T03:32:42;20.38;;;9.35;;
54935;SDS011;40838;50.676;7.838;2022-12-18T03:37:48;19.08;;;9.65;;
54935;SDS011;40838;50.676;7.838;2022-12-18T03:40:16;21.33;;;9.63;;
54935;SDS011;40838;50.676;7.838;2022-12-18T03:42:45;19.23;;;8.07;;
54935;SDS011;40838;50.676;7.838;2022-12-18T03:45:20;20.30;;;9.63;;
54935;SDS011;40838;50.676;7.838;2022-12-18T03:47:53;20.70;;;10.43;;
54935;SDS011;40838;50.676;7.838;2022-12-18T03:50:34;19.27;;;9.25;;
54935;SDS011;40838;50.676;7.838;2022-12-18T03:53:09;26.98;;;10.68;;
54935;SDS011;40838;50.676;7.838;2022-12-18T03:55:49;23.85;;;10.30;;
54935;SDS011;40838;50.676;7.838;2022-12-18T03:58:19;20.05;;;10.25;;
54935;SDS011;40838;50.676;7.838;2022-12-18T04:01:01;18.77;;;8.82;;
54935;SDS011;40838;50.676;7.838;2022-12-18T04:03:35;21.45;;;10.02;;
54935;SDS011;40838;50.676;7.838;2022-12-18T04:06:05;26.52;;;10.52;;
54935;SDS011;40838;50.676;7.838;2022-12-18T04:08:34;21.00;;;9.45;;
54935;SDS011;40838;50.676;7.838;2022-12-18T04:11:05;26.58;;;10.10;;
54935;SDS011;40838;50.676;7.838;2022-12-18T04:13:34;21.73;;;10.25;;
54935;SDS011;40838;50.676;7.838;2022-12-18T04:16:08;21.83;;;10.25;;
54935;SDS011;40838;50.676;7.838;2022-12-18T04:18:38;20.60;;;9.85;;
54935;SDS011;40838;50.676;7.838;2022-12-18T04:21:07;24.42;;;10.90;;
54935;SDS011;40838;50.676;7.838;2022-12-18T04:23:34;22.40;;;10.32;;
54935;SDS011;40838;50.676;7.838;2022-12-18T04:26:03;25.90;;;10.05;;
54935;SDS011;40838;50.676;7.838;2022-12-18T04:28:51;26.17;;;9.68;;
54935;SDS011;40838;50.676;7.838;2022-12-18T04:31:21;19.90;;;10.50;;
54935;SDS011;40838;50.676;7.838;2022-12-18T04:33:48;20.13;;;8.25;;
54935;SDS011;40838;50.676;7.838;2022-12-18T04:36:16;26.40;;;11.23;;
54935;SDS011;40838;50.676;7.838;2022-12-18T04:38:44;21.98;;;10.15;;
54935;SDS011;40838;50.676;7.838;2022-12-18T04:41:14;27.02;;;10.07;;
54935;SDS011;40838;50.676;7.838;2022-12-18T04:43:43;22.58;;;10.57;;
54935;SDS011;40838;50.676;7.838;2022-12-18T04:46:10;24.55;;;9.88;;
54935;SDS011;40838;50.676;7.838;2022-12-18T04:48:38;19.45;;;9.68;;
54935;SDS011;40838;50.676;7.838;2022-12-18T04:51:06;20.25;;;9.70;;
54935;SDS011;40838;50.676;7.838;2022-12-18T04:53:35;21.30;;;10.30;;
54935;SDS011;40838;50.676;7.838;2022-12-18T04:56:02;22.52;;;9.68;;
54935;SDS011;40838;50.676;7.838;2022-12-18T04:58:30;18.27;;;9.02;;
54935;SDS011;40838;50.676;7.838;2022-12-18T05:00:57;24.30;;;10.20;;
54935;SDS011;40838;50.676;7.838;2022-12-18T05:03:24;26.33;;;11.05;;
54935;SDS011;40838;50.676;7.838;2022-12-18T05:05:53;22.55;;;9.52;;
54935;SDS011;40838;50.676;7.838;2022-12-18T05:08:23;25.83;;;10.50;;
54935;SDS011;40838;50.676;7.838;2022-12-18T05:10:53;21.60;;;10.07;;
54935;SDS011;40838;50.676;7.838;2022-12-18T05:13:26;27.58;;;12.25;;
54935;SDS011;40838;50.676;7.838;2022-12-18T05:15:54;31.80;;;11.88;;
54935;SDS011;40838;50.676;7.838;2022-12-18T05:18:21;28.08;;;12.50;;
54935;SDS011;40838;50.676;7.838;2022-12-18T05:20:49;25.38;;;10.55;;
54935;SDS011;40838;50.676;7.838;2022-12-18T05:23:17;26.83;;;11.25;;
54935;SDS011;40838;50.676;7.838;2022-12-18T05:25:50;18.85;;;9.23;;
54935;SDS011;40838;50.676;7.838;2022-12-18T05:28:27;25.10;;;10.95;;
54935;SDS011;40838;50.676;7.838;2022-12-18T05:30:55;20.65;;;10.20;;
54935;SDS011;40838;50.676;7.838;2022-12-18T05:33:24;22.67;;;10.50;;
54935;SDS011;40838;50.676;7.838;2022-12-18T05:35:53;21.85;;;9.52;;
54935;SDS011;40838;50.676;7.838;2022-12-18T05:38:22;26.70;;;10.82;;
54935;SDS011;40838;50.676;7.838;2022-12-18T05:40:51;23.85;;;10.15;;
54935;SDS011;40838;50.676;7.838;2022-12-18T05:43:19;19.77;;;8.80;;
54935;SDS011;40838;50.676;7.838;2022-12-18T05:45:47;21.90;;;9.88;;
54935;SDS011;40838;50.676;7.838;2022-12-18T05:48:15;23.27;;;10.73;;
54935;SDS011;40838;50.676;7.838;2022-12-18T05:50:43;23.67;;;9.82;;
54935;SDS011;40838;50.676;7.838;2022-12-18T05:53:12;21.80;;;10.15;;
54935;SDS011;40838;50.676;7.838;2022-12-18T05:55:41;18.50;;;8.50;;
54935;SDS011;40838;50.676;7.838;2022-12-18T05:58:09;22.90;;;11.10;;
54935;SDS011;40838;50.676;7.838;2022-12-18T06:00:38;21.50;;;9.13;;
54935;SDS011;40838;50.676;7.838;2022-12-18T06:03:07;22.48;;;9.40;;
54935;SDS011;40838;50.676;7.838;2022-12-18T06:05:34;18.17;;;8.98;;
54935;SDS011;40838;50.676;7.838;2022-12-18T06:08:02;21.58;;;9.00;;
54935;SDS011;40838;50.676;7.838;2022-12-18T06:10:29;19.27;;;8.88;;
54935;SDS011;40838;50.676;7.838;2022-12-18T06:12:58;22.42;;;12.30;;
54935;SDS011;40838;50.676;7.838;2022-12-18T06:15:25;20.85;;;10.15;;
54935;SDS011;40838;50.676;7.838;2022-12-18T06:17:51;17.25;;;8.50;;
54935;SDS011;40838;50.676;7.838;2022-12-18T06:20:18;20.65;;;8.50;;
54935;SDS011;40838;50.676;7.838;2022-12-18T06:22:45;17.75;;;7.32;;
54935;SDS011;40838;50.676;7.838;2022-12-18T06:25:12;18.15;;;8.23;;
54935;SDS011;40838;50.676;7.838;2022-12-18T06:27:39;17.02;;;8.15;;
54935;SDS011;40838;50.676;7.838;2022-12-18T06:30:08;24.02;;;10.15;;
54935;SDS011;40838;50.676;7.838;2022-12-18T06:32:36;21.63;;;9.85;;
54935;SDS011;40838;50.676;7.838;2022-12-18T06:35:03;24.02;;;10.20;;
54935;SDS011;40838;50.676;7.838;2022-12-18T06:37:30;17.70;;;8.35;;
54935;SDS011;40838;50.676;7.838;2022-12-18T06:40:00;20.88;;;9.05;;
54935;SDS011;40838;50.676;7.838;2022-12-18T06:42:28;22.52;;;9.88;;
54935;SDS011;40838;50.676;7.838;2022-12-18T06:44:54;21.13;;;10.68;;
54935;SDS011;40838;50.676;7.838;2022-12-18T06:47:25;18.75;;;8.13;;
54935;SDS011;40838;50.676;7.838;2022-12-18T06:49:54;22.40;;;9.45;;
54935;SDS011;40838;50.676;7.838;2022-12-18T06:52:21;23.98;;;10.88;;
54935;SDS011;40838;50.676;7.838;2022-12-18T06:54:48;22.05;;;8.05;;
54935;SDS011;40838;50.676;7.838;2022-12-18T06:57:15;20.50;;;10.00;;
54935;SDS011;40838;50.676;7.838;2022-12-18T06:59:41;21.20;;;9.52;;
54935;SDS011;40838;50.676;7.838;2022-12-18T07:02:10;21.23;;;9.63;;
54935;SDS011;40838;50.676;7.838;2022-12-18T07:04:39;14.85;;;8.00;;
54935;SDS011;40838;50.676;7.838;2022-12-18T07:07:06;18.20;;;8.07;;
54935;SDS011;40838;50.676;7.838;2022-12-18T07:09:33;21.73;;;9.10;;
54935;SDS011;40838;50.676;7.838;2022-12-18T07:12:00;21.95;;;9.48;;
54935;SDS011;40838;50.676;7.838;2022-12-18T07:14:27;20.88;;;10.30;;
54935;SDS011;40838;50.676;7.838;2022-12-18T07:16:54;14.93;;;7.15;;
54935;SDS011;40838;50.676;7.838;2022-12-18T07:19:23;20.25;;;7.45;;
54935;SDS011;40838;50.676;7.838;2022-12-18T07:21:52;19.80;;;9.35;;
54935;SDS011;40838;50.676;7.838;2022-12-18T07:24:18;17.30;;;8.55;;
54935;SDS011;40838;50.676;7.838;2022-12-18T07:26:45;17.45;;;7.82;;
54935;SDS011;40838;50.676;7.838;2022-12-18T07:29:12;15.88;;;7.80;;
54935;SDS011;40838;50.676;7.838;2022-12-18T07:31:41;22.83;;;9.20;;
54935;SDS011;40838;50.676;7.838;2022-12-18T07:34:09;14.48;;;6.90;;
54935;SDS011;40838;50.676;7.838;2022-12-18T07:36:37;18.65;;;9.38;;
54935;SDS011;40838;50.676;7.838;2022-12-18T07:39:07;12.05;;;5.75;;
54935;SDS011;40838;50.676;7.838;2022-12-18T07:41:34;15.80;;;7.35;;
54935;SDS011;40838;50.676;7.838;2022-12-18T07:44:08;17.45;;;8.15;;
54935;SDS011;40838;50.676;7.838;2022-12-18T07:46:36;13.45;;;6.53;;
54935;SDS011;40838;50.676;7.838;2022-12-18T07:49:03;17.67;;;8.35;;
54935;SDS011;40838;50.676;7.838;2022-12-18T07:51:30;18.35;;;9.88;;
54935;SDS011;40838;50.676;7.838;2022-12-18T07:53:56;16.73;;;8.55;;
54935;SDS011;40838;50.676;7.838;2022-12-18T07:56:25;14.35;;;6.60;;
54935;SDS011;40838;50.676;7.838;2022-12-18T07:58:52;16.08;;;8.35;;
54935;SDS011;40838;50.676;7.838;2022-12-18T08:01:18;18.00;;;7.20;;
54935;SDS011;40838;50.676;7.838;2022-12-18T08:03:45;14.32;;;8.13;;
54935;SDS011;40838;50.676;7.838;2022-12-18T08:06:12;17.33;;;7.15;;
54935;SDS011;40838;50.676;7.838;2022-12-18T08:08:39;14.48;;;7.38;;
54935;SDS011;40838;50.676;7.838;2022-12-18T08:11:08;18.23;;;7.75;;
54935;SDS011;40838;50.676;7.838;2022-12-18T08:13:38;16.35;;;7.15;;
54935;SDS011;40838;50.676;7.838;2022-12-18T08:16:05;17.33;;;8.77;;
54935;SDS011;40838;50.676;7.838;2022-12-18T08:18:34;17.60;;;7.05;;
54935;SDS011;40838;50.676;7.838;2022-12-18T08:21:07;14.18;;;6.95;;
54935;SDS011;40838;50.676;7.838;2022-12-18T08:23:35;14.67;;;6.00;;
54935;SDS011;40838;50.676;7.838;2022-12-18T08:26:04;16.00;;;6.90;;
54935;SDS011;40838;50.676;7.838;2022-12-18T08:28:31;16.85;;;7.22;;
54935;SDS011;40838;50.676;7.838;2022-12-18T08:30:59;16.70;;;7.35;;
54935;SDS011;40838;50.676;7.838;2022-12-18T08:33:26;14.15;;;6.57;;
54935;SDS011;40838;50.676;7.838;2022-12-18T08:35:53;19.10;;;7.13;;
54935;SDS011;40838;50.676;7.838;2022-12-18T08:38:20;14.15;;;7.75;;
54935;SDS011;40838;50.676;7.838;2022-12-18T08:40:48;17.08;;;7.32;;
54935;SDS011;40838;50.676;7.838;2022-12-18T08:43:16;12.10;;;6.00;;
54935;SDS011;40838;50.676;7.838;2022-12-18T08:46:04;16.08;;;8.57;;
54935;SDS011;40838;50.676;7.838;2022-12-18T08:48:32;13.80;;;6.15;;
54935;SDS011;40838;50.676;7.838;2022-12-18T08:51:00;15.00;;;6.45;;
54935;SDS011;40838;50.676;7.838;2022-12-18T08:53:27;15.52;;;6.82;;
54935;SDS011;40838;50.676;7.838;2022-12-18T08:55:55;12.00;;;6.28;;
54935;SDS011;40838;50.676;7.838;2022-12-18T08:58:23;18.27;;;8.20;;
54935;SDS011;40838;50.676;7.838;2022-12-18T09:00:51;15.82;;;8.07;;
54935;SDS011;40838;50.676;7.838;2022-12-18T09:03:19;15.32;;;6.95;;
54935;SDS011;40838;50.676;7.838;2022-12-18T09:05:48;10.93;;;6.57;;
54935;SDS011;40838;50.676;7.838;2022-12-18T09:08:15;14.90;;;6.60;;
54935;SDS011;40838;50.676;7.838;2022-12-18T09:10:44;11.80;;;6.22;;
54935;SDS011;40838;50.676;7.838;2022-12-18T09:13:12;11.90;;;5.78;;
54935;SDS011;40838;50.676;7.838;2022-12-18T09:15:40;13.52;;;6.57;;
54935;SDS011;40838;50.676;7.838;2022-12-18T09:18:08;13.75;;;6.25;;
54935;SDS011;40838;50.676;7.838;2022-12-18T09:20:36;11.20;;;5.90;;
54935;SDS011;40838;50.676;7.838;2022-12-18T09:23:04;10.60;;;6.05;;
54935;SDS011;40838;50.676;7.838;2022-12-18T09:25:31;13.68;;;6.50;;
54935;SDS011;40838;50.676;7.838;2022-12-18T09:28:03;17.98;;;8.45;;
54935;SDS011;40838;50.676;7.838;2022-12-18T09:30:31;12.68;;;7.00;;
54935;SDS011;40838;50.676;7.838;2022-12-18T09:32:59;14.55;;;6.40;;
54935;SDS011;40838;50.676;7.838;2022-12-18T09:35:26;14.35;;;6.60;;
54935;SDS011;40838;50.676;7.838;2022-12-18T09:37:55;13.93;;;5.93;;
54935;SDS011;40838;50.676;7.838;2022-12-18T09:40:22;13.70;;;7.00;;
54935;SDS011;40838;50.676;7.838;2022-12-18T09:42:54;12.02;;;5.78;;
54935;SDS011;40838;50.676;7.838;2022-12-18T09:45:24;14.20;;;6.63;;
54935;SDS011;40838;50.676;7.838;2022-12-18T09:47:51;9.73;;;5.55;;
54935;SDS011;40838;50.676;7.838;2022-12-18T09:50:23;14.68;;;6.88;;
54935;SDS011;40838;50.676;7.838;2022-12-18T09:52:56;10.45;;;5.57;;
54935;SDS011;40838;50.676;7.838;2022-12-18T09:55:28;13.75;;;6.40;;
54935;SDS011;40838;50.676;7.838;2022-12-18T09:57:58;9.93;;;5.22;;
54935;SDS011;40838;50.676;7.838;2022-12-18T10:00:31;15.25;;;6.82;;
54935;SDS011;40838;50.676;7.838;2022-12-18T10:02:59;13.23;;;6.22;;
54935;SDS011;40838;50.676;7.838;2022-12-18T10:05:30;13.77;;;6.28;;
54935;SDS011;40838;50.676;7.838;2022-12-18T10:08:07;12.68;;;6.35;;
54935;SDS011;40838;50.676;7.838;2022-12-18T10:10:40;16.30;;;6.70;;
54935;SDS011;40838;50.676;7.838;2022-12-18T10:13:15;14.00;;;6.95;;
54935;SDS011;40838;50.676;7.838;2022-12-18T10:15:51;14.18;;;7.50;;
54935;SDS011;40838;50.676;7.838;2022-12-18T10:18:31;15.55;;;7.90;;
54935;SDS011;40838;50.676;7.838;2022-12-18T10:21:12;15.85;;;8.23;;
54935;SDS011;40838;50.676;7.838;2022-12-18T10:23:47;11.82;;;7.00;;
54935;SDS011;40838;50.676;7.838;2022-12-18T10:26:22;16.40;;;8.20;;
54935;SDS011;40838;50.676;7.838;2022-12-18T10:28:50;14.10;;;6.10;;
54935;SDS011;40838;50.676;7.838;2022-12-18T10:31:20;13.35;;;7.40;;
54935;SDS011;40838;50.676;7.838;2022-12-18T10:33:53;13.25;;;6.68;;
54935;SDS011;40838;50.676;7.838;2022-12-18T10:36:20;16.38;;;6.53;;
54935;SDS011;40838;50.676;7.838;2022-12-18T10:38:50;16.40;;;7.45;;
54935;SDS011;40838;50.676;7.838;2022-12-18T10:41:24;12.80;;;7.22;;
54935;SDS011;40838;50.676;7.838;2022-12-18T10:46:39;16.35;;;6.22;;
54935;SDS011;40838;50.676;7.838;2022-12-18T10:49:17;17.63;;;7.57;;
54935;SDS011;40838;50.676;7.838;2022-12-18T10:51:46;12.80;;;7.43;;
54935;SDS011;40838;50.676;7.838;2022-12-18T10:54:18;22.77;;;10.35;;
54935;SDS011;40838;50.676;7.838;2022-12-18T10:56:47;17.73;;;8.63;;
54935;SDS011;40838;50.676;7.838;2022-12-18T10:59:15;17.67;;;8.95;;
54935;SDS011;40838;50.676;7.838;2022-12-18T11:01:48;19.75;;;9.27;;
54935;SDS011;40838;50.676;7.838;2022-12-18T11:04:18;19.38;;;7.38;;
54935;SDS011;40838;50.676;7.838;2022-12-18T11:06:55;13.98;;;6.72;;
54935;SDS011;40838;50.676;7.838;2022-12-18T11:09:28;16.55;;;7.82;;
54935;SDS011;40838;50.676;7.838;2022-12-18T11:11:57;19.30;;;8.75;;
54935;SDS011;40838;50.676;7.838;2022-12-18T11:14:27;19.73;;;8.82;;
54935;SDS011;40838;50.676;7.838;2022-12-18T11:16:58;16.95;;;7.50;;
54935;SDS011;40838;50.676;7.838;2022-12-18T11:19:29;12.55;;;6.40;;
54935;SDS011;40838;50.676;7.838;2022-12-18T11:21:59;21.15;;;9.73;;
54935;SDS011;40838;50.676;7.838;2022-12-18T11:24:30;16.92;;;8.10;;
54935;SDS011;40838;50.676;7.838;2022-12-18T11:27:00;17.83;;;8.05;;
54935;SDS011;40838;50.676;7.838;2022-12-18T11:29:33;20.63;;;10.13;;
54935;SDS011;40838;50.676;7.838;2022-12-18T11:35:11;16.23;;;8.30;;
54935;SDS011;40838;50.676;7.838;2022-12-18T11:37:46;23.70;;;10.23;;
54935;SDS011;40838;50.676;7.838;2022-12-18T11:40:22;18.95;;;9.25;;
54935;SDS011;40838;50.676;7.838;2022-12-18T11:42:58;20.73;;;10.20;;
54935;SDS011;40838;50.676;7.838;2022-12-18T11:45:34;22.83;;;10.13;;
54935;SDS011;40838;50.676;7.838;2022-12-18T11:48:05;15.23;;;8.18;;
54935;SDS011;40838;50.676;7.838;2022-12-18T11:50:44;24.63;;;11.68;;
54935;SDS011;40838;50.676;7.838;2022-12-18T11:53:15;18.98;;;8.35;;
54935;SDS011;40838;50.676;7.838;2022-12-18T11:55:47;21.20;;;10.10;;
54935;SDS011;40838;50.676;7.838;2022-12-18T11:58:34;25.08;;;9.73;;
54935;SDS011;40838;50.676;7.838;2022-12-18T12:01:12;20.92;;;11.50;;
54935;SDS011;40838;50.676;7.838;2022-12-18T12:03:53;22.10;;;8.60;;
54935;SDS011;40838;50.676;7.838;2022-12-18T12:06:42;25.10;;;10.02;;
54935;SDS011;40838;50.676;7.838;2022-12-18T12:09:19;19.33;;;8.77;;
54935;SDS011;40838;50.676;7.838;2022-12-18T12:12:04;22.77;;;11.48;;
54935;SDS011;40838;50.676;7.838;2022-12-18T12:14:44;23.17;;;10.25;;
54935;SDS011;40838;50.676;7.838;2022-12-18T12:17:22;25.02;;;10.25;;
54935;SDS011;40838;50.676;7.838;2022-12-18T12:20:00;20.52;;;9.63;;
54935;SDS011;40838;50.676;7.838;2022-12-18T12:22:37;22.67;;;10.82;;
54935;SDS011;40838;50.676;7.838;2022-12-18T12:25:13;27.17;;;12.63;;
54935;SDS011;40838;50.676;7.838;2022-12-18T12:27:54;23.20;;;11.40;;
54935;SDS011;40838;50.676;7.838;2022-12-18T12:30:35;23.55;;;10.50;;
54935;SDS011;40838;50.676;7.838;2022-12-18T12:33:14;25.00;;;11.07;;
54935;SDS011;40838;50.676;7.838;2022-12-18T12:35:56;22.25;;;12.63;;
54935;SDS011;40838;50.676;7.838;2022-12-18T12:38:35;21.63;;;10.35;;
54935;SDS011;40838;50.676;7.838;2022-12-18T12:41:09;20.80;;;10.05;;
54935;SDS011;40838;50.676;7.838;2022-12-18T12:43:55;20.73;;;9.75;;
54935;SDS011;40838;50.676;7.838;2022-12-18T12:46:26;20.15;;;9.68;;
54935;SDS011;40838;50.676;7.838;2022-12-18T12:48:58;30.20;;;12.23;;
54935;SDS011;40838;50.676;7.838;2022-12-18T12:51:28;24.42;;;9.98;;
54935;SDS011;40838;50.676;7.838;2022-12-18T12:53:59;21.90;;;11.00;;
54935;SDS011;40838;50.676;7.838;2022-12-18T12:56:36;25.50;;;11.75;;
54935;SDS011;40838;50.676;7.838;2022-12-18T12:59:13;20.90;;;9.70;;
54935;SDS011;40838;50.676;7.838;2022-12-18T13:01:48;23.42;;;11.50;;
54935;SDS011;40838;50.676;7.838;2022-12-18T13:04:21;29.45;;;12.77;;
54935;SDS011;40838;50.676;7.838;2022-12-18T13:06:54;29.80;;;13.85;;
54935;SDS011;40838;50.676;7.838;2022-12-18T13:09:31;31.20;;;13.43;;
54935;SDS011;40838;50.676;7.838;2022-12-18T13:12:03;25.77;;;12.98;;
54935;SDS011;40838;50.676;7.838;2022-12-18T13:14:55;31.67;;;15.20;;
54935;SDS011;40838;50.676;7.838;2022-12-18T13:17:40;27.95;;;12.25;;
54935;SDS011;40838;50.676;7.838;2022-12-18T13:20:10;33.50;;;14.02;;
54935;SDS011;40838;50.676;7.838;2022-12-18T13:22:40;25.70;;;12.15;;
54935;SDS011;40838;50.676;7.838;2022-12-18T13:25:32;31.00;;;13.90;;
54935;SDS011;40838;50.676;7.838;2022-12-18T13:28:02;33.38;;;13.60;;
54935;SDS011;40838;50.676;7.838;2022-12-18T13:30:43;34.00;;;14.85;;
54935;SDS011;40838;50.676;7.838;2022-12-18T13:38:41;28.15;;;11.98;;
54935;SDS011;40838;50.676;7.838;2022-12-18T13:43:54;27.45;;;11.50;;
54935;SDS011;40838;50.676;7.838;2022-12-18T13:46:25;27.52;;;12.52;;
54935;SDS011;40838;50.676;7.838;2022-12-18T13:48:55;31.38;;;15.50;;
54935;SDS011;40838;50.676;7.838;2022-12-18T13:51:25;30.73;;;14.20;;
54935;SDS011;40838;50.676;7.838;2022-12-18T13:53:54;28.35;;;14.20;;
54935;SDS011;40838;50.676;7.838;2022-12-18T13:56:25;31.65;;;15.45;;
54935;SDS011;40838;50.676;7.838;2022-12-18T13:59:11;30.58;;;14.73;;
54935;SDS011;40838;50.676;7.838;2022-12-18T14:01:47;36.15;;;14.10;;
54935;SDS011;40838;50.676;7.838;2022-12-18T14:04:18;35.55;;;14.35;;
54935;SDS011;40838;50.676;7.838;2022-12-18T14:06:51;35.30;;;16.40;;
54935;SDS011;40838;50.676;7.838;2022-12-18T14:09:21;34.15;;;14.23;;
54935;SDS011;40838;50.676;7.838;2022-12-18T14:11:51;35.30;;;14.68;;
54935;SDS011;40838;50.676;7.838;2022-12-18T14:14:41;33.58;;;14.93;;
54935;SDS011;40838;50.676;7.838;2022-12-18T14:17:11;34.58;;;14.05;;
54935;SDS011;40838;50.676;7.838;2022-12-18T14:19:41;32.50;;;15.13;;
54935;SDS011;40838;50.676;7.838;2022-12-18T14:22:19;30.05;;;14.07;;
54935;SDS011;40838;50.676;7.838;2022-12-18T14:25:04;38.30;;;13.65;;
54935;SDS011;40838;50.676;7.838;2022-12-18T14:27:42;28.65;;;13.18;;
54935;SDS011;40838;50.676;7.838;2022-12-18T14:30:29;28.42;;;13.25;;
54935;SDS011;40838;50.676;7.838;2022-12-18T14:33:03;37.17;;;15.18;;
54935;SDS011;40838;50.676;7.838;2022-12-18T14:35:32;27.83;;;12.10;;
54935;SDS011;40838;50.676;7.838;2022-12-18T14:40:54;28.88;;;13.18;;
54935;SDS011;40838;50.676;7.838;2022-12-18T14:43:29;36.42;;;15.95;;
54935;SDS011;40838;50.676;7.838;2022-12-18T14:45:59;35.85;;;15.70;;
54935;SDS011;40838;50.676;7.838;2022-12-18T14:48:35;28.70;;;13.30;;
54935;SDS011;40838;50.676;7.838;2022-12-18T14:51:04;35.38;;;16.30;;
54935;SDS011;40838;50.676;7.838;2022-12-18T14:53:34;38.40;;;17.02;;
54935;SDS011;40838;50.676;7.838;2022-12-18T14:56:10;29.33;;;13.32;;
54935;SDS011;40838;50.676;7.838;2022-12-18T14:58:44;44.55;;;17.77;;
54935;SDS011;40838;50.676;7.838;2022-12-18T15:01:17;39.47;;;15.15;;
54935;SDS011;40838;50.676;7.838;2022-12-18T15:03:47;44.78;;;16.05;;
54935;SDS011;40838;50.676;7.838;2022-12-18T15:06:15;33.20;;;15.13;;
54935;SDS011;40838;50.676;7.838;2022-12-18T15:08:43;34.20;;;14.48;;
54935;SDS011;40838;50.676;7.838;2022-12-18T15:11:24;33.22;;;15.30;;
54935;SDS011;40838;50.676;7.838;2022-12-18T15:13:53;39.47;;;15.77;;
54935;SDS011;40838;50.676;7.838;2022-12-18T15:16:20;39.03;;;18.85;;
54935;SDS011;40838;50.676;7.838;2022-12-18T15:18:48;35.17;;;14.25;;